Highland, Louisiana
Current Conditions -  °F | °C
As of 5:15 PM on Monday 22 Dec 2014 (Local Time) from KHEZ Reporting Station
Broken Clouds Broken Clouds  
Wind Chill: 66°   Ceiling: 3400
Heat Index: 66°   Visibility: 10mi
Dew Point: 59°   Wind: 7mph
Humidity: 78%   Direction: 170°S
Pressure: 29.64"   Gusts: NA
Location:  31.835°N, 91.3655°W
Report Text: KHEZ 222315Z AUTO 17006KT 10SM SCT026 BKN034 19/15 A2964 RMK AO1
Loading
Personal Weather Stations






























Interactive Weather Map New forecast layout! Learn more

10-Day Weather Forecast

Advertisements
Track Severe Weather on mobile